sensor_id;sensor_type;location;lat;lon;timestamp;P1;durP1;ratioP1;P2;durP2;ratioP2
50104;SDS011;47690;39.202;-77.198;2023-12-20T00:02:03;1.60;;;1.50;;
50104;SDS011;47690;39.202;-77.198;2023-12-20T00:04:32;1.55;;;1.45;;
50104;SDS011;47690;39.202;-77.198;2023-12-20T00:07:01;1.40;;;1.30;;
50104;SDS011;47690;39.202;-77.198;2023-12-20T00:09:33;1.92;;;1.50;;
50104;SDS011;47690;39.202;-77.198;2023-12-20T00:12:03;1.70;;;1.50;;
50104;SDS011;47690;39.202;-77.198;2023-12-20T00:14:32;2.22;;;1.63;;
50104;SDS011;47690;39.202;-77.198;2023-12-20T00:17:02;1.13;;;1.13;;
50104;SDS011;47690;39.202;-77.198;2023-12-20T00:19:31;1.60;;;1.50;;
50104;SDS011;47690;39.202;-77.198;2023-12-20T00:22:04;1.20;;;1.20;;
50104;SDS011;47690;39.202;-77.198;2023-12-20T00:24:35;1.52;;;1.42;;
50104;SDS011;47690;39.202;-77.198;2023-12-20T00:27:05;1.60;;;1.50;;
50104;SDS011;47690;39.202;-77.198;2023-12-20T00:29:33;1.60;;;1.50;;
50104;SDS011;47690;39.202;-77.198;2023-12-20T00:32:03;1.58;;;1.48;;
50104;SDS011;47690;39.202;-77.198;2023-12-20T00:34:34;1.60;;;1.50;;
50104;SDS011;47690;39.202;-77.198;2023-12-20T00:37:03;1.67;;;1.58;;
50104;SDS011;47690;39.202;-77.198;2023-12-20T00:39:33;1.42;;;1.33;;
50104;SDS011;47690;39.202;-77.198;2023-12-20T00:42:03;1.63;;;1.52;;
50104;SDS011;47690;39.202;-77.198;2023-12-20T00:44:35;1.60;;;1.50;;
50104;SDS011;47690;39.202;-77.198;2023-12-20T00:47:04;1.67;;;1.40;;
50104;SDS011;47690;39.202;-77.198;2023-12-20T00:49:33;1.63;;;1.52;;
50104;SDS011;47690;39.202;-77.198;2023-12-20T00:52:02;1.60;;;1.50;;
50104;SDS011;47690;39.202;-77.198;2023-12-20T00:54:30;1.52;;;1.42;;
50104;SDS011;47690;39.202;-77.198;2023-12-20T00:56:59;1.38;;;1.27;;
50104;SDS011;47690;39.202;-77.198;2023-12-20T00:59:29;1.60;;;1.50;;
50104;SDS011;47690;39.202;-77.198;2023-12-20T01:01:57;1.65;;;1.50;;
50104;SDS011;47690;39.202;-77.198;2023-12-20T01:04:31;1.63;;;1.52;;
50104;SDS011;47690;39.202;-77.198;2023-12-20T01:07:00;1.77;;;1.65;;
50104;SDS011;47690;39.202;-77.198;2023-12-20T01:09:30;1.50;;;1.40;;
50104;SDS011;47690;39.202;-77.198;2023-12-20T01:11:58;1.90;;;1.55;;
50104;SDS011;47690;39.202;-77.198;2023-12-20T01:14:41;1.70;;;1.60;;
50104;SDS011;47690;39.202;-77.198;2023-12-20T01:17:45;1.40;;;1.40;;
50104;SDS011;47690;39.202;-77.198;2023-12-20T01:20:45;1.70;;;1.60;;
50104;SDS011;47690;39.202;-77.198;2023-12-20T01:23:19;1.65;;;1.40;;
50104;SDS011;47690;39.202;-77.198;2023-12-20T01:25:48;1.17;;;1.17;;
50104;SDS011;47690;39.202;-77.198;2023-12-20T01:28:17;1.70;;;1.55;;
50104;SDS011;47690;39.202;-77.198;2023-12-20T01:30:47;2.03;;;1.58;;
50104;SDS011;47690;39.202;-77.198;2023-12-20T01:33:17;1.67;;;1.58;;
50104;SDS011;47690;39.202;-77.198;2023-12-20T01:35:45;1.70;;;1.60;;
50104;SDS011;47690;39.202;-77.198;2023-12-20T01:38:14;1.60;;;1.50;;
50104;SDS011;47690;39.202;-77.198;2023-12-20T01:40:42;1.58;;;1.48;;
50104;SDS011;47690;39.202;-77.198;2023-12-20T01:43:11;2.80;;;1.90;;
50104;SDS011;47690;39.202;-77.198;2023-12-20T01:45:40;10.02;;;3.97;;
50104;SDS011;47690;39.202;-77.198;2023-12-20T01:48:09;6.40;;;3.22;;
50104;SDS011;47690;39.202;-77.198;2023-12-20T01:50:38;3.97;;;2.30;;
50104;SDS011;47690;39.202;-77.198;2023-12-20T01:53:08;3.63;;;2.42;;
50104;SDS011;47690;39.202;-77.198;2023-12-20T01:55:39;3.75;;;2.50;;
50104;SDS011;47690;39.202;-77.198;2023-12-20T01:58:08;3.03;;;2.10;;
50104;SDS011;47690;39.202;-77.198;2023-12-20T02:00:38;5.07;;;2.80;;
50104;SDS011;47690;39.202;-77.198;2023-12-20T02:03:07;3.78;;;2.60;;
50104;SDS011;47690;39.202;-77.198;2023-12-20T02:05:36;3.67;;;2.20;;
50104;SDS011;47690;39.202;-77.198;2023-12-20T02:08:06;2.97;;;1.90;;
50104;SDS011;47690;39.202;-77.198;2023-12-20T02:10:34;2.38;;;1.80;;
50104;SDS011;47690;39.202;-77.198;2023-12-20T02:13:03;1.88;;;1.70;;
50104;SDS011;47690;39.202;-77.198;2023-12-20T02:15:33;2.67;;;1.90;;
50104;SDS011;47690;39.202;-77.198;2023-12-20T02:18:01;2.05;;;1.83;;
50104;SDS011;47690;39.202;-77.198;2023-12-20T02:20:29;1.83;;;1.63;;
50104;SDS011;47690;39.202;-77.198;2023-12-20T02:23:01;1.83;;;1.55;;
50104;SDS011;47690;39.202;-77.198;2023-12-20T02:25:30;2.10;;;1.70;;
50104;SDS011;47690;39.202;-77.198;2023-12-20T02:28:00;2.10;;;1.90;;
50104;SDS011;47690;39.202;-77.198;2023-12-20T02:30:30;2.30;;;1.88;;
50104;SDS011;47690;39.202;-77.198;2023-12-20T02:33:01;2.00;;;1.90;;
50104;SDS011;47690;39.202;-77.198;2023-12-20T02:35:35;2.85;;;2.00;;
50104;SDS011;47690;39.202;-77.198;2023-12-20T02:38:04;1.85;;;1.75;;
50104;SDS011;47690;39.202;-77.198;2023-12-20T02:40:33;2.33;;;1.85;;
50104;SDS011;47690;39.202;-77.198;2023-12-20T02:43:02;1.90;;;1.75;;
50104;SDS011;47690;39.202;-77.198;2023-12-20T02:45:30;2.95;;;1.80;;
50104;SDS011;47690;39.202;-77.198;2023-12-20T02:47:59;2.00;;;1.80;;
50104;SDS011;47690;39.202;-77.198;2023-12-20T02:50:29;1.80;;;1.70;;
50104;SDS011;47690;39.202;-77.198;2023-12-20T02:53:00;2.78;;;1.80;;
50104;SDS011;47690;39.202;-77.198;2023-12-20T02:55:31;1.77;;;1.50;;
50104;SDS011;47690;39.202;-77.198;2023-12-20T02:58:00;2.65;;;1.88;;
50104;SDS011;47690;39.202;-77.198;2023-12-20T03:00:33;1.80;;;1.60;;
50104;SDS011;47690;39.202;-77.198;2023-12-20T03:03:02;2.60;;;1.80;;
50104;SDS011;47690;39.202;-77.198;2023-12-20T03:05:30;1.77;;;1.63;;
50104;SDS011;47690;39.202;-77.198;2023-12-20T03:08:00;2.33;;;1.70;;
50104;SDS011;47690;39.202;-77.198;2023-12-20T03:10:29;2.38;;;1.90;;
50104;SDS011;47690;39.202;-77.198;2023-12-20T03:12:59;1.77;;;1.60;;
50104;SDS011;47690;39.202;-77.198;2023-12-20T03:15:28;1.60;;;1.50;;
50104;SDS011;47690;39.202;-77.198;2023-12-20T03:17:57;1.60;;;1.45;;
50104;SDS011;47690;39.202;-77.198;2023-12-20T03:20:28;2.03;;;1.83;;
50104;SDS011;47690;39.202;-77.198;2023-12-20T03:23:01;14.27;;;6.50;;
50104;SDS011;47690;39.202;-77.198;2023-12-20T03:25:34;19.75;;;9.05;;
50104;SDS011;47690;39.202;-77.198;2023-12-20T03:28:03;16.90;;;8.25;;
50104;SDS011;47690;39.202;-77.198;2023-12-20T03:30:32;8.68;;;5.07;;
50104;SDS011;47690;39.202;-77.198;2023-12-20T03:33:02;7.50;;;4.10;;
50104;SDS011;47690;39.202;-77.198;2023-12-20T03:35:32;6.78;;;3.33;;
50104;SDS011;47690;39.202;-77.198;2023-12-20T03:38:03;5.32;;;3.10;;
50104;SDS011;47690;39.202;-77.198;2023-12-20T03:40:32;6.45;;;3.22;;
50104;SDS011;47690;39.202;-77.198;2023-12-20T03:43:01;5.47;;;3.00;;
50104;SDS011;47690;39.202;-77.198;2023-12-20T03:45:30;4.47;;;3.05;;
50104;SDS011;47690;39.202;-77.198;2023-12-20T03:47:59;3.60;;;2.60;;
50104;SDS011;47690;39.202;-77.198;2023-12-20T03:50:29;5.75;;;2.97;;
50104;SDS011;47690;39.202;-77.198;2023-12-20T03:52:59;5.20;;;3.05;;
50104;SDS011;47690;39.202;-77.198;2023-12-20T03:55:29;3.85;;;2.60;;
50104;SDS011;47690;39.202;-77.198;2023-12-20T03:58:00;3.33;;;2.38;;
50104;SDS011;47690;39.202;-77.198;2023-12-20T04:00:28;3.95;;;2.35;;
50104;SDS011;47690;39.202;-77.198;2023-12-20T04:02:57;3.10;;;2.40;;
50104;SDS011;47690;39.202;-77.198;2023-12-20T04:05:27;2.97;;;2.22;;
50104;SDS011;47690;39.202;-77.198;2023-12-20T04:07:59;3.03;;;2.28;;
50104;SDS011;47690;39.202;-77.198;2023-12-20T04:10:30;3.58;;;2.30;;
50104;SDS011;47690;39.202;-77.198;2023-12-20T04:12:59;2.25;;;1.95;;
50104;SDS011;47690;39.202;-77.198;2023-12-20T04:15:30;2.17;;;1.98;;
50104;SDS011;47690;39.202;-77.198;2023-12-20T04:18:01;2.75;;;2.10;;
50104;SDS011;47690;39.202;-77.198;2023-12-20T04:20:29;3.33;;;2.30;;
50104;SDS011;47690;39.202;-77.198;2023-12-20T04:23:00;3.20;;;2.20;;
50104;SDS011;47690;39.202;-77.198;2023-12-20T04:25:29;2.25;;;1.90;;
50104;SDS011;47690;39.202;-77.198;2023-12-20T04:28:07;3.35;;;2.15;;
50104;SDS011;47690;39.202;-77.198;2023-12-20T04:30:36;2.13;;;1.70;;
50104;SDS011;47690;39.202;-77.198;2023-12-20T04:33:07;2.13;;;1.90;;
50104;SDS011;47690;39.202;-77.198;2023-12-20T04:35:35;2.25;;;1.92;;
50104;SDS011;47690;39.202;-77.198;2023-12-20T04:38:03;2.38;;;1.95;;
50104;SDS011;47690;39.202;-77.198;2023-12-20T04:40:32;2.03;;;1.83;;
50104;SDS011;47690;39.202;-77.198;2023-12-20T04:43:00;1.95;;;1.80;;
50104;SDS011;47690;39.202;-77.198;2023-12-20T04:45:30;2.55;;;1.88;;
50104;SDS011;47690;39.202;-77.198;2023-12-20T04:47:59;3.47;;;1.92;;
50104;SDS011;47690;39.202;-77.198;2023-12-20T04:50:30;2.50;;;1.85;;
50104;SDS011;47690;39.202;-77.198;2023-12-20T04:53:01;2.72;;;1.90;;
50104;SDS011;47690;39.202;-77.198;2023-12-20T04:55:30;1.73;;;1.63;;
50104;SDS011;47690;39.202;-77.198;2023-12-20T04:58:02;1.85;;;1.73;;
50104;SDS011;47690;39.202;-77.198;2023-12-20T05:00:31;1.98;;;1.80;;
50104;SDS011;47690;39.202;-77.198;2023-12-20T05:03:00;1.67;;;1.58;;
50104;SDS011;47690;39.202;-77.198;2023-12-20T05:05:30;2.03;;;1.70;;
50104;SDS011;47690;39.202;-77.198;2023-12-20T05:08:00;2.67;;;1.98;;
50104;SDS011;47690;39.202;-77.198;2023-12-20T05:10:29;1.58;;;1.48;;
50104;SDS011;47690;39.202;-77.198;2023-12-20T05:12:59;2.17;;;1.90;;
50104;SDS011;47690;39.202;-77.198;2023-12-20T05:15:32;2.47;;;2.00;;
50104;SDS011;47690;39.202;-77.198;2023-12-20T05:18:00;1.92;;;1.80;;
50104;SDS011;47690;39.202;-77.198;2023-12-20T05:20:30;2.63;;;2.10;;
50104;SDS011;47690;39.202;-77.198;2023-12-20T05:22:59;1.70;;;1.60;;
50104;SDS011;47690;39.202;-77.198;2023-12-20T05:25:30;2.00;;;1.80;;
50104;SDS011;47690;39.202;-77.198;2023-12-20T05:27:59;2.33;;;1.80;;
50104;SDS011;47690;39.202;-77.198;2023-12-20T05:30:30;2.92;;;1.90;;
50104;SDS011;47690;39.202;-77.198;2023-12-20T05:32:59;2.65;;;1.80;;
50104;SDS011;47690;39.202;-77.198;2023-12-20T05:35:34;2.00;;;1.80;;
50104;SDS011;47690;39.202;-77.198;2023-12-20T05:38:02;2.35;;;1.88;;
50104;SDS011;47690;39.202;-77.198;2023-12-20T05:40:32;2.60;;;2.00;;
50104;SDS011;47690;39.202;-77.198;2023-12-20T05:43:11;2.63;;;2.00;;
50104;SDS011;47690;39.202;-77.198;2023-12-20T05:45:40;3.30;;;2.38;;
50104;SDS011;47690;39.202;-77.198;2023-12-20T05:48:11;66.68;;;25.52;;
50104;SDS011;47690;39.202;-77.198;2023-12-20T05:50:39;54.35;;;23.38;;
50104;SDS011;47690;39.202;-77.198;2023-12-20T05:53:08;29.40;;;14.45;;
50104;SDS011;47690;39.202;-77.198;2023-12-20T05:55:36;29.35;;;13.70;;
50104;SDS011;47690;39.202;-77.198;2023-12-20T05:58:06;41.70;;;18.13;;
50104;SDS011;47690;39.202;-77.198;2023-12-20T06:00:35;32.58;;;16.08;;
50104;SDS011;47690;39.202;-77.198;2023-12-20T06:03:03;23.45;;;11.90;;
50104;SDS011;47690;39.202;-77.198;2023-12-20T06:05:37;18.85;;;9.73;;
50104;SDS011;47690;39.202;-77.198;2023-12-20T06:08:05;13.30;;;6.47;;
50104;SDS011;47690;39.202;-77.198;2023-12-20T06:10:34;10.40;;;5.35;;
50104;SDS011;47690;39.202;-77.198;2023-12-20T06:13:03;7.93;;;4.70;;
50104;SDS011;47690;39.202;-77.198;2023-12-20T06:15:32;9.05;;;3.97;;
50104;SDS011;47690;39.202;-77.198;2023-12-20T06:18:03;5.03;;;3.25;;
50104;SDS011;47690;39.202;-77.198;2023-12-20T06:20:32;6.05;;;3.67;;
50104;SDS011;47690;39.202;-77.198;2023-12-20T06:23:01;4.53;;;3.20;;
50104;SDS011;47690;39.202;-77.198;2023-12-20T06:25:31;6.43;;;3.80;;
50104;SDS011;47690;39.202;-77.198;2023-12-20T06:28:00;4.60;;;3.05;;
50104;SDS011;47690;39.202;-77.198;2023-12-20T06:30:30;6.35;;;3.80;;
50104;SDS011;47690;39.202;-77.198;2023-12-20T06:33:00;6.40;;;3.72;;
50104;SDS011;47690;39.202;-77.198;2023-12-20T06:35:31;7.55;;;3.40;;
50104;SDS011;47690;39.202;-77.198;2023-12-20T06:38:03;4.00;;;2.88;;
50104;SDS011;47690;39.202;-77.198;2023-12-20T06:40:32;5.28;;;3.30;;
50104;SDS011;47690;39.202;-77.198;2023-12-20T06:43:01;5.10;;;3.10;;
50104;SDS011;47690;39.202;-77.198;2023-12-20T06:45:42;3.88;;;2.70;;
50104;SDS011;47690;39.202;-77.198;2023-12-20T06:48:11;3.25;;;2.20;;
50104;SDS011;47690;39.202;-77.198;2023-12-20T06:50:41;2.78;;;2.10;;
50104;SDS011;47690;39.202;-77.198;2023-12-20T06:53:10;2.65;;;2.15;;
50104;SDS011;47690;39.202;-77.198;2023-12-20T06:55:38;3.45;;;2.00;;
50104;SDS011;47690;39.202;-77.198;2023-12-20T06:58:06;2.35;;;1.90;;
50104;SDS011;47690;39.202;-77.198;2023-12-20T07:00:35;2.92;;;1.90;;
50104;SDS011;47690;39.202;-77.198;2023-12-20T07:03:04;1.80;;;1.70;;
50104;SDS011;47690;39.202;-77.198;2023-12-20T07:05:33;1.75;;;1.65;;
50104;SDS011;47690;39.202;-77.198;2023-12-20T07:08:01;2.00;;;1.80;;
50104;SDS011;47690;39.202;-77.198;2023-12-20T07:10:31;3.45;;;1.80;;
50104;SDS011;47690;39.202;-77.198;2023-12-20T07:12:59;1.75;;;1.65;;
50104;SDS011;47690;39.202;-77.198;2023-12-20T07:15:30;2.60;;;2.10;;
50104;SDS011;47690;39.202;-77.198;2023-12-20T07:17:59;3.20;;;2.00;;
50104;SDS011;47690;39.202;-77.198;2023-12-20T07:20:30;2.67;;;1.90;;
50104;SDS011;47690;39.202;-77.198;2023-12-20T07:22:59;2.00;;;1.80;;
50104;SDS011;47690;39.202;-77.198;2023-12-20T07:25:28;2.10;;;1.90;;
50104;SDS011;47690;39.202;-77.198;2023-12-20T07:28:00;1.98;;;1.80;;
50104;SDS011;47690;39.202;-77.198;2023-12-20T07:30:30;2.08;;;1.80;;
50104;SDS011;47690;39.202;-77.198;2023-12-20T07:33:00;2.45;;;1.85;;
50104;SDS011;47690;39.202;-77.198;2023-12-20T07:35:29;2.28;;;2.00;;
50104;SDS011;47690;39.202;-77.198;2023-12-20T07:38:00;2.22;;;2.00;;
50104;SDS011;47690;39.202;-77.198;2023-12-20T07:40:30;2.03;;;1.83;;
50104;SDS011;47690;39.202;-77.198;2023-12-20T07:43:03;2.10;;;1.90;;
50104;SDS011;47690;39.202;-77.198;2023-12-20T07:45:32;2.22;;;2.03;;
50104;SDS011;47690;39.202;-77.198;2023-12-20T07:48:00;2.22;;;2.03;;
50104;SDS011;47690;39.202;-77.198;2023-12-20T07:50:29;2.08;;;1.88;;
50104;SDS011;47690;39.202;-77.198;2023-12-20T07:53:01;2.38;;;1.98;;
50104;SDS011;47690;39.202;-77.198;2023-12-20T07:55:31;2.00;;;1.80;;
50104;SDS011;47690;39.202;-77.198;2023-12-20T07:58:00;2.85;;;2.03;;
50104;SDS011;47690;39.202;-77.198;2023-12-20T08:00:29;2.63;;;2.05;;
50104;SDS011;47690;39.202;-77.198;2023-12-20T08:03:00;2.22;;;2.08;;
50104;SDS011;47690;39.202;-77.198;2023-12-20T08:05:31;1.95;;;1.60;;
50104;SDS011;47690;39.202;-77.198;2023-12-20T08:08:00;2.15;;;1.92;;
50104;SDS011;47690;39.202;-77.198;2023-12-20T08:10:30;2.13;;;1.80;;
50104;SDS011;47690;39.202;-77.198;2023-12-20T08:12:59;2.80;;;1.80;;
50104;SDS011;47690;39.202;-77.198;2023-12-20T08:15:29;2.50;;;1.80;;
50104;SDS011;47690;39.202;-77.198;2023-12-20T08:18:00;2.50;;;2.00;;
50104;SDS011;47690;39.202;-77.198;2023-12-20T08:20:29;2.50;;;1.88;;
50104;SDS011;47690;39.202;-77.198;2023-12-20T08:23:06;2.33;;;1.83;;
50104;SDS011;47690;39.202;-77.198;2023-12-20T08:25:35;2.30;;;2.10;;
50104;SDS011;47690;39.202;-77.198;2023-12-20T08:28:04;2.35;;;1.90;;
50104;SDS011;47690;39.202;-77.198;2023-12-20T08:30:33;2.13;;;1.90;;
50104;SDS011;47690;39.202;-77.198;2023-12-20T08:33:03;2.35;;;1.88;;
50104;SDS011;47690;39.202;-77.198;2023-12-20T08:35:32;2.33;;;1.90;;
50104;SDS011;47690;39.202;-77.198;2023-12-20T08:38:04;2.95;;;1.90;;
50104;SDS011;47690;39.202;-77.198;2023-12-20T08:40:32;2.13;;;1.88;;
50104;SDS011;47690;39.202;-77.198;2023-12-20T08:43:01;2.35;;;1.90;;
50104;SDS011;47690;39.202;-77.198;2023-12-20T08:45:30;2.10;;;1.90;;
50104;SDS011;47690;39.202;-77.198;2023-12-20T08:48:00;2.38;;;1.98;;
50104;SDS011;47690;39.202;-77.198;2023-12-20T08:50:31;2.33;;;2.10;;
50104;SDS011;47690;39.202;-77.198;2023-12-20T08:53:00;3.60;;;2.17;;
50104;SDS011;47690;39.202;-77.198;2023-12-20T08:55:29;2.03;;;1.83;;
50104;SDS011;47690;39.202;-77.198;2023-12-20T08:57:59;3.55;;;2.45;;
50104;SDS011;47690;39.202;-77.198;2023-12-20T09:00:29;2.17;;;1.98;;
50104;SDS011;47690;39.202;-77.198;2023-12-20T09:02:57;2.80;;;1.80;;
50104;SDS011;47690;39.202;-77.198;2023-12-20T09:05:29;2.20;;;1.90;;
50104;SDS011;47690;39.202;-77.198;2023-12-20T09:07:59;3.88;;;2.03;;
50104;SDS011;47690;39.202;-77.198;2023-12-20T09:10:27;2.15;;;1.88;;
50104;SDS011;47690;39.202;-77.198;2023-12-20T09:12:57;3.15;;;2.10;;
50104;SDS011;47690;39.202;-77.198;2023-12-20T09:15:29;1.83;;;1.73;;
50104;SDS011;47690;39.202;-77.198;2023-12-20T09:18:08;2.47;;;2.00;;
50104;SDS011;47690;39.202;-77.198;2023-12-20T09:20:36;2.50;;;2.00;;
50104;SDS011;47690;39.202;-77.198;2023-12-20T09:23:09;2.33;;;1.98;;
50104;SDS011;47690;39.202;-77.198;2023-12-20T09:25:37;4.03;;;2.05;;
50104;SDS011;47690;39.202;-77.198;2023-12-20T09:28:06;3.10;;;1.80;;
50104;SDS011;47690;39.202;-77.198;2023-12-20T09:30:34;2.40;;;2.13;;
50104;SDS011;47690;39.202;-77.198;2023-12-20T09:33:08;2.43;;;1.87;;
50104;SDS011;47690;39.202;-77.198;2023-12-20T09:35:37;2.10;;;1.90;;
50104;SDS011;47690;39.202;-77.198;2023-12-20T09:38:06;2.90;;;1.88;;
50104;SDS011;47690;39.202;-77.198;2023-12-20T09:40:35;3.13;;;2.08;;
50104;SDS011;47690;39.202;-77.198;2023-12-20T09:43:10;2.20;;;2.00;;
50104;SDS011;47690;39.202;-77.198;2023-12-20T09:45:47;1.95;;;1.80;;
50104;SDS011;47690;39.202;-77.198;2023-12-20T09:48:17;2.15;;;1.90;;
50104;SDS011;47690;39.202;-77.198;2023-12-20T09:50:47;2.25;;;2.00;;
50104;SDS011;47690;39.202;-77.198;2023-12-20T09:53:20;2.83;;;2.10;;
50104;SDS011;47690;39.202;-77.198;2023-12-20T09:55:51;2.67;;;2.00;;
50104;SDS011;47690;39.202;-77.198;2023-12-20T09:58:20;2.17;;;1.98;;
50104;SDS011;47690;39.202;-77.198;2023-12-20T10:00:49;2.10;;;1.90;;
50104;SDS011;47690;39.202;-77.198;2023-12-20T10:03:18;2.78;;;2.10;;
50104;SDS011;47690;39.202;-77.198;2023-12-20T10:05:56;2.67;;;2.00;;
50104;SDS011;47690;39.202;-77.198;2023-12-20T10:08:29;2.22;;;1.90;;
50104;SDS011;47690;39.202;-77.198;2023-12-20T10:11:02;2.05;;;1.85;;
50104;SDS011;47690;39.202;-77.198;2023-12-20T10:13:31;2.53;;;2.00;;
50104;SDS011;47690;39.202;-77.198;2023-12-20T10:16:00;2.55;;;2.05;;
50104;SDS011;47690;39.202;-77.198;2023-12-20T10:18:29;2.17;;;1.98;;
50104;SDS011;47690;39.202;-77.198;2023-12-20T10:21:06;2.00;;;1.90;;
50104;SDS011;47690;39.202;-77.198;2023-12-20T10:23:39;2.30;;;2.10;;
50104;SDS011;47690;39.202;-77.198;2023-12-20T10:26:08;2.85;;;2.20;;
50104;SDS011;47690;39.202;-77.198;2023-12-20T10:28:37;2.55;;;2.10;;
50104;SDS011;47690;39.202;-77.198;2023-12-20T10:31:06;3.22;;;2.15;;
50104;SDS011;47690;39.202;-77.198;2023-12-20T10:33:36;2.10;;;1.90;;
50104;SDS011;47690;39.202;-77.198;2023-12-20T10:36:05;2.38;;;2.08;;
50104;SDS011;47690;39.202;-77.198;2023-12-20T10:38:34;2.80;;;2.10;;
50104;SDS011;47690;39.202;-77.198;2023-12-20T10:41:06;2.10;;;1.90;;
50104;SDS011;47690;39.202;-77.198;2023-12-20T10:43:36;2.10;;;1.90;;
50104;SDS011;47690;39.202;-77.198;2023-12-20T10:46:05;2.25;;;2.05;;
50104;SDS011;47690;39.202;-77.198;2023-12-20T10:48:34;2.20;;;2.00;;
50104;SDS011;47690;39.202;-77.198;2023-12-20T10:51:04;2.00;;;1.80;;
50104;SDS011;47690;39.202;-77.198;2023-12-20T10:53:33;3.25;;;2.22;;
50104;SDS011;47690;39.202;-77.198;2023-12-20T10:56:04;2.40;;;2.10;;
50104;SDS011;47690;39.202;-77.198;2023-12-20T10:58:34;2.72;;;2.17;;
50104;SDS011;47690;39.202;-77.198;2023-12-20T11:01:08;2.30;;;2.10;;
50104;SDS011;47690;39.202;-77.198;2023-12-20T11:03:43;3.42;;;2.42;;
50104;SDS011;47690;39.202;-77.198;2023-12-20T11:09:14;2.40;;;2.20;;
50104;SDS011;47690;39.202;-77.198;2023-12-20T11:14:49;2.65;;;2.13;;
50104;SDS011;47690;39.202;-77.198;2023-12-20T11:17:19;3.05;;;2.30;;
50104;SDS011;47690;39.202;-77.198;2023-12-20T11:22:25;2.55;;;2.30;;
50104;SDS011;47690;39.202;-77.198;2023-12-20T11:25:03;3.03;;;2.47;;
50104;SDS011;47690;39.202;-77.198;2023-12-20T11:27:40;2.67;;;2.17;;
50104;SDS011;47690;39.202;-77.198;2023-12-20T11:30:14;2.70;;;2.15;;
50104;SDS011;47690;39.202;-77.198;2023-12-20T11:32:46;2.55;;;2.25;;
50104;SDS011;47690;39.202;-77.198;2023-12-20T11:37:43;2.50;;;2.30;;
50104;SDS011;47690;39.202;-77.198;2023-12-20T11:40:15;2.33;;;2.13;;
50104;SDS011;47690;39.202;-77.198;2023-12-20T11:42:48;4.22;;;2.40;;
50104;SDS011;47690;39.202;-77.198;2023-12-20T11:45:19;2.60;;;2.20;;
50104;SDS011;47690;39.202;-77.198;2023-12-20T11:47:55;3.58;;;2.78;;
50104;SDS011;47690;39.202;-77.198;2023-12-20T11:50:27;3.28;;;2.50;;
50104;SDS011;47690;39.202;-77.198;2023-12-20T11:53:01;2.72;;;2.13;;
50104;SDS011;47690;39.202;-77.198;2023-12-20T11:55:29;2.70;;;2.38;;
50104;SDS011;47690;39.202;-77.198;2023-12-20T11:58:01;2.80;;;2.30;;
50104;SDS011;47690;39.202;-77.198;2023-12-20T12:00:31;3.25;;;2.30;;
50104;SDS011;47690;39.202;-77.198;2023-12-20T12:03:00;2.45;;;2.20;;
50104;SDS011;47690;39.202;-77.198;2023-12-20T12:05:32;2.55;;;2.25;;
50104;SDS011;47690;39.202;-77.198;2023-12-20T12:08:02;2.60;;;2.20;;
50104;SDS011;47690;39.202;-77.198;2023-12-20T12:10:34;2.83;;;2.15;;
50104;SDS011;47690;39.202;-77.198;2023-12-20T12:13:04;3.55;;;2.50;;
50104;SDS011;47690;39.202;-77.198;2023-12-20T12:15:34;3.35;;;2.20;;
50104;SDS011;47690;39.202;-77.198;2023-12-20T12:18:04;2.90;;;2.58;;
50104;SDS011;47690;39.202;-77.198;2023-12-20T12:20:33;3.60;;;2.70;;
50104;SDS011;47690;39.202;-77.198;2023-12-20T12:23:05;2.97;;;2.20;;
50104;SDS011;47690;39.202;-77.198;2023-12-20T12:25:37;3.60;;;2.55;;
50104;SDS011;47690;39.202;-77.198;2023-12-20T12:28:09;3.72;;;2.40;;
50104;SDS011;47690;39.202;-77.198;2023-12-20T12:30:39;3.95;;;2.88;;
50104;SDS011;47690;39.202;-77.198;2023-12-20T12:33:21;3.50;;;2.90;;
50104;SDS011;47690;39.202;-77.198;2023-12-20T12:35:50;5.47;;;3.60;;
50104;SDS011;47690;39.202;-77.198;2023-12-20T12:38:23;5.38;;;3.38;;
50104;SDS011;47690;39.202;-77.198;2023-12-20T12:40:52;4.70;;;3.30;;
50104;SDS011;47690;39.202;-77.198;2023-12-20T12:43:21;4.07;;;3.28;;
50104;SDS011;47690;39.202;-77.198;2023-12-20T12:45:50;4.25;;;3.17;;
50104;SDS011;47690;39.202;-77.198;2023-12-20T12:48:19;4.05;;;2.88;;
50104;SDS011;47690;39.202;-77.198;2023-12-20T12:50:48;3.33;;;2.97;;
50104;SDS011;47690;39.202;-77.198;2023-12-20T12:53:19;3.65;;;2.83;;
50104;SDS011;47690;39.202;-77.198;2023-12-20T12:55:48;5.95;;;3.15;;
50104;SDS011;47690;39.202;-77.198;2023-12-20T12:58:16;7.00;;;3.72;;
50104;SDS011;47690;39.202;-77.198;2023-12-20T13:00:45;5.22;;;3.67;;
50104;SDS011;47690;39.202;-77.198;2023-12-20T13:03:13;3.95;;;3.28;;
50104;SDS011;47690;39.202;-77.198;2023-12-20T13:05:42;3.85;;;2.97;;
50104;SDS011;47690;39.202;-77.198;2023-12-20T13:08:14;3.92;;;2.60;;
50104;SDS011;47690;39.202;-77.198;2023-12-20T13:10:42;3.70;;;2.65;;
50104;SDS011;47690;39.202;-77.198;2023-12-20T13:13:11;3.10;;;2.60;;
50104;SDS011;47690;39.202;-77.198;2023-12-20T13:15:39;3.33;;;2.30;;
50104;SDS011;47690;39.202;-77.198;2023-12-20T13:18:08;3.45;;;2.30;;
50104;SDS011;47690;39.202;-77.198;2023-12-20T13:20:36;2.83;;;2.42;;
50104;SDS011;47690;39.202;-77.198;2023-12-20T13:23:06;2.30;;;2.10;;
50104;SDS011;47690;39.202;-77.198;2023-12-20T13:25:35;3.08;;;2.42;;
50104;SDS011;47690;39.202;-77.198;2023-12-20T13:28:05;2.55;;;2.20;;
50104;SDS011;47690;39.202;-77.198;2023-12-20T13:30:35;2.80;;;2.30;;
50104;SDS011;47690;39.202;-77.198;2023-12-20T13:33:05;2.95;;;2.25;;
50104;SDS011;47690;39.202;-77.198;2023-12-20T13:35:34;3.10;;;2.60;;
50104;SDS011;47690;39.202;-77.198;2023-12-20T13:38:02;2.50;;;2.30;;
50104;SDS011;47690;39.202;-77.198;2023-12-20T13:40:35;2.72;;;2.40;;
50104;SDS011;47690;39.202;-77.198;2023-12-20T13:43:04;2.33;;;2.10;;
50104;SDS011;47690;39.202;-77.198;2023-12-20T13:45:33;3.65;;;2.22;;
50104;SDS011;47690;39.202;-77.198;2023-12-20T13:48:01;2.40;;;2.20;;
50104;SDS011;47690;39.202;-77.198;2023-12-20T13:50:30;4.63;;;3.00;;
50104;SDS011;47690;39.202;-77.198;2023-12-20T13:53:00;4.95;;;3.50;;
50104;SDS011;47690;39.202;-77.198;2023-12-20T13:55:30;3.70;;;2.80;;
50104;SDS011;47690;39.202;-77.198;2023-12-20T13:57:59;3.47;;;2.63;;
50104;SDS011;47690;39.202;-77.198;2023-12-20T14:00:29;3.28;;;2.45;;
50104;SDS011;47690;39.202;-77.198;2023-12-20T14:03:04;2.75;;;2.40;;
50104;SDS011;47690;39.202;-77.198;2023-12-20T14:05:34;3.35;;;2.42;;
50104;SDS011;47690;39.202;-77.198;2023-12-20T14:08:04;3.70;;;2.35;;
50104;SDS011;47690;39.202;-77.198;2023-12-20T14:10:32;3.08;;;2.20;;
50104;SDS011;47690;39.202;-77.198;2023-12-20T14:13:01;2.50;;;2.28;;
50104;SDS011;47690;39.202;-77.198;2023-12-20T14:15:31;3.05;;;2.30;;
50104;SDS011;47690;39.202;-77.198;2023-12-20T14:18:05;3.17;;;2.10;;
50104;SDS011;47690;39.202;-77.198;2023-12-20T14:20:35;2.88;;;2.30;;
50104;SDS011;47690;39.202;-77.198;2023-12-20T14:23:04;2.42;;;2.10;;
50104;SDS011;47690;39.202;-77.198;2023-12-20T14:25:33;2.35;;;2.00;;
50104;SDS011;47690;39.202;-77.198;2023-12-20T14:28:15;2.85;;;2.35;;
50104;SDS011;47690;39.202;-77.198;2023-12-20T14:30:45;3.05;;;2.10;;
50104;SDS011;47690;39.202;-77.198;2023-12-20T14:33:16;2.50;;;2.20;;
50104;SDS011;47690;39.202;-77.198;2023-12-20T14:35:47;2.63;;;2.20;;
50104;SDS011;47690;39.202;-77.198;2023-12-20T14:38:16;2.38;;;1.95;;
50104;SDS011;47690;39.202;-77.198;2023-12-20T14:40:44;2.08;;;1.90;;
50104;SDS011;47690;39.202;-77.198;2023-12-20T14:43:12;3.33;;;2.17;;
50104;SDS011;47690;39.202;-77.198;2023-12-20T14:45:41;2.67;;;2.20;;
50104;SDS011;47690;39.202;-77.198;2023-12-20T14:48:10;3.17;;;2.20;;
50104;SDS011;47690;39.202;-77.198;2023-12-20T14:50:38;2.40;;;2.10;;